sensor_id;sensor_type;location;lat;lon;timestamp;temperature;humidity
50955;DHT22;36966;48.064;-0.792;2022-10-31T00:01:39;20.20;60.50
50955;DHT22;36966;48.064;-0.792;2022-10-31T00:03:59;20.20;60.50
50955;DHT22;36966;48.064;-0.792;2022-10-31T00:06:18;20.20;60.50
50955;DHT22;36966;48.064;-0.792;2022-10-31T00:08:38;20.20;60.50
50955;DHT22;36966;48.064;-0.792;2022-10-31T00:10:57;20.20;60.50
50955;DHT22;36966;48.064;-0.792;2022-10-31T00:13:17;20.20;60.50
50955;DHT22;36966;48.064;-0.792;2022-10-31T00:15:37;20.20;60.50
50955;DHT22;36966;48.064;-0.792;2022-10-31T00:17:58;20.20;60.50
50955;DHT22;36966;48.064;-0.792;2022-10-31T00:20:17;20.20;60.50
50955;DHT22;36966;48.064;-0.792;2022-10-31T00:22:36;20.20;60.50
50955;DHT22;36966;48.064;-0.792;2022-10-31T00:24:55;20.20;60.50
50955;DHT22;36966;48.064;-0.792;2022-10-31T00:27:15;20.20;60.50
50955;DHT22;36966;48.064;-0.792;2022-10-31T00:29:34;20.20;60.50
50955;DHT22;36966;48.064;-0.792;2022-10-31T00:31:53;20.20;60.50
50955;DHT22;36966;48.064;-0.792;2022-10-31T00:34:12;20.20;60.50
50955;DHT22;36966;48.064;-0.792;2022-10-31T00:36:32;20.10;60.50
50955;DHT22;36966;48.064;-0.792;2022-10-31T00:38:51;20.20;60.50
50955;DHT22;36966;48.064;-0.792;2022-10-31T00:41:11;20.10;60.50
50955;DHT22;36966;48.064;-0.792;2022-10-31T00:43:31;20.20;60.50
50955;DHT22;36966;48.064;-0.792;2022-10-31T00:45:50;20.20;60.40
50955;DHT22;36966;48.064;-0.792;2022-10-31T00:48:10;20.20;60.50
50955;DHT22;36966;48.064;-0.792;2022-10-31T00:50:29;20.10;60.50
50955;DHT22;36966;48.064;-0.792;2022-10-31T00:52:48;20.20;60.50
50955;DHT22;36966;48.064;-0.792;2022-10-31T00:55:07;20.10;60.50
50955;DHT22;36966;48.064;-0.792;2022-10-31T00:57:27;20.10;60.60
50955;DHT22;36966;48.064;-0.792;2022-10-31T00:59:46;20.10;60.60
50955;DHT22;36966;48.064;-0.792;2022-10-31T01:02:05;20.10;60.60
50955;DHT22;36966;48.064;-0.792;2022-10-31T01:04:24;20.10;60.60
50955;DHT22;36966;48.064;-0.792;2022-10-31T01:06:43;20.10;60.60
50955;DHT22;36966;48.064;-0.792;2022-10-31T01:09:03;20.10;60.70
50955;DHT22;36966;48.064;-0.792;2022-10-31T01:11:23;20.10;60.60
50955;DHT22;36966;48.064;-0.792;2022-10-31T01:13:43;20.10;60.70
50955;DHT22;36966;48.064;-0.792;2022-10-31T01:16:04;20.10;60.60
50955;DHT22;36966;48.064;-0.792;2022-10-31T01:18:24;20.10;60.70
50955;DHT22;36966;48.064;-0.792;2022-10-31T01:20:44;20.10;60.70
50955;DHT22;36966;48.064;-0.792;2022-10-31T01:23:03;20.20;60.70
50955;DHT22;36966;48.064;-0.792;2022-10-31T01:25:22;20.00;60.70
50955;DHT22;36966;48.064;-0.792;2022-10-31T01:27:41;20.10;60.70
50955;DHT22;36966;48.064;-0.792;2022-10-31T01:30:00;20.10;60.70
50955;DHT22;36966;48.064;-0.792;2022-10-31T01:32:20;20.10;60.80
50955;DHT22;36966;48.064;-0.792;2022-10-31T01:34:39;20.10;60.80
50955;DHT22;36966;48.064;-0.792;2022-10-31T01:36:58;20.10;60.80
50955;DHT22;36966;48.064;-0.792;2022-10-31T01:39:18;20.10;60.80
50955;DHT22;36966;48.064;-0.792;2022-10-31T01:41:41;20.10;60.80
50955;DHT22;36966;48.064;-0.792;2022-10-31T01:49:06;20.10;60.80
50955;DHT22;36966;48.064;-0.792;2022-10-31T01:51:37;20.00;60.80
50955;DHT22;36966;48.064;-0.792;2022-10-31T01:54:09;20.00;60.80
50955;DHT22;36966;48.064;-0.792;2022-10-31T01:56:30;20.00;60.90
50955;DHT22;36966;48.064;-0.792;2022-10-31T01:58:51;20.00;60.90
50955;DHT22;36966;48.064;-0.792;2022-10-31T02:01:14;20.00;60.90
50955;DHT22;36966;48.064;-0.792;2022-10-31T02:03:34;20.00;60.90
50955;DHT22;36966;48.064;-0.792;2022-10-31T02:05:55;20.00;60.90
50955;DHT22;36966;48.064;-0.792;2022-10-31T02:08:20;20.00;60.90
50955;DHT22;36966;48.064;-0.792;2022-10-31T02:10:43;20.00;60.90
50955;DHT22;36966;48.064;-0.792;2022-10-31T02:13:05;20.00;60.80
50955;DHT22;36966;48.064;-0.792;2022-10-31T02:15:24;20.00;60.80
50955;DHT22;36966;48.064;-0.792;2022-10-31T02:17:44;20.00;60.80
50955;DHT22;36966;48.064;-0.792;2022-10-31T02:20:12;20.00;60.80
50955;DHT22;36966;48.064;-0.792;2022-10-31T02:22:40;20.00;60.80
50955;DHT22;36966;48.064;-0.792;2022-10-31T02:30:54;20.00;60.80
50955;DHT22;36966;48.064;-0.792;2022-10-31T02:33:25;20.00;60.70
50955;DHT22;36966;48.064;-0.792;2022-10-31T02:36:07;20.00;60.80
50955;DHT22;36966;48.064;-0.792;2022-10-31T02:41:41;20.00;60.80
50955;DHT22;36966;48.064;-0.792;2022-10-31T02:46:34;20.00;60.70
50955;DHT22;36966;48.064;-0.792;2022-10-31T02:48:58;19.90;60.80
50955;DHT22;36966;48.064;-0.792;2022-10-31T02:51:20;20.00;60.80
50955;DHT22;36966;48.064;-0.792;2022-10-31T02:53:39;20.00;60.80
50955;DHT22;36966;48.064;-0.792;2022-10-31T02:56:04;19.90;60.80
50955;DHT22;36966;48.064;-0.792;2022-10-31T02:58:27;20.00;60.80
50955;DHT22;36966;48.064;-0.792;2022-10-31T03:07:13;20.00;60.80
50955;DHT22;36966;48.064;-0.792;2022-10-31T03:09:24;20.00;60.70
50955;DHT22;36966;48.064;-0.792;2022-10-31T03:12:07;19.90;60.70
50955;DHT22;36966;48.064;-0.792;2022-10-31T03:14:43;19.90;60.70
50955;DHT22;36966;48.064;-0.792;2022-10-31T03:17:13;19.90;60.70
50955;DHT22;36966;48.064;-0.792;2022-10-31T03:19:39;19.90;60.70
50955;DHT22;36966;48.064;-0.792;2022-10-31T03:22:15;19.90;60.70
50955;DHT22;36966;48.064;-0.792;2022-10-31T03:24:38;19.90;60.70
50955;DHT22;36966;48.064;-0.792;2022-10-31T03:26:59;19.90;60.70
50955;DHT22;36966;48.064;-0.792;2022-10-31T03:29:23;19.90;60.70
50955;DHT22;36966;48.064;-0.792;2022-10-31T03:31:58;19.90;60.70
50955;DHT22;36966;48.064;-0.792;2022-10-31T03:34:20;19.90;60.70
50955;DHT22;36966;48.064;-0.792;2022-10-31T03:36:40;19.90;60.70
50955;DHT22;36966;48.064;-0.792;2022-10-31T03:39:02;19.90;60.60
50955;DHT22;36966;48.064;-0.792;2022-10-31T03:41:28;19.90;60.60
50955;DHT22;36966;48.064;-0.792;2022-10-31T03:46:36;19.90;60.60
50955;DHT22;36966;48.064;-0.792;2022-10-31T03:48:56;19.90;60.60
50955;DHT22;36966;48.064;-0.792;2022-10-31T03:52:19;19.90;60.60
50955;DHT22;36966;48.064;-0.792;2022-10-31T03:54:25;19.90;60.60
50955;DHT22;36966;48.064;-0.792;2022-10-31T03:56:54;19.80;60.60
50955;DHT22;36966;48.064;-0.792;2022-10-31T04:01:47;19.80;60.60
50955;DHT22;36966;48.064;-0.792;2022-10-31T04:04:08;19.80;60.70
50955;DHT22;36966;48.064;-0.792;2022-10-31T04:06:29;19.80;60.60
50955;DHT22;36966;48.064;-0.792;2022-10-31T04:08:56;19.80;60.70
50955;DHT22;36966;48.064;-0.792;2022-10-31T04:11:18;19.80;60.60
50955;DHT22;36966;48.064;-0.792;2022-10-31T04:13:40;19.80;60.60
50955;DHT22;36966;48.064;-0.792;2022-10-31T04:16:01;19.80;60.60
50955;DHT22;36966;48.064;-0.792;2022-10-31T04:18:22;19.80;60.60
50955;DHT22;36966;48.064;-0.792;2022-10-31T04:20:41;19.80;60.70
50955;DHT22;36966;48.064;-0.792;2022-10-31T04:23:02;19.80;60.70
50955;DHT22;36966;48.064;-0.792;2022-10-31T04:25:22;19.80;60.70
50955;DHT22;36966;48.064;-0.792;2022-10-31T04:27:42;19.80;60.70
50955;DHT22;36966;48.064;-0.792;2022-10-31T04:30:01;19.80;60.70
50955;DHT22;36966;48.064;-0.792;2022-10-31T04:32:20;19.80;60.70
50955;DHT22;36966;48.064;-0.792;2022-10-31T04:34:40;19.80;60.70
50955;DHT22;36966;48.064;-0.792;2022-10-31T04:36:59;19.80;60.70
50955;DHT22;36966;48.064;-0.792;2022-10-31T04:39:18;19.80;60.60
50955;DHT22;36966;48.064;-0.792;2022-10-31T04:41:37;19.80;60.70
50955;DHT22;36966;48.064;-0.792;2022-10-31T04:43:56;19.80;60.70
50955;DHT22;36966;48.064;-0.792;2022-10-31T04:46:16;19.80;60.70
50955;DHT22;36966;48.064;-0.792;2022-10-31T04:48:35;19.80;60.70
50955;DHT22;36966;48.064;-0.792;2022-10-31T04:51:02;19.80;60.70
50955;DHT22;36966;48.064;-0.792;2022-10-31T04:53:21;19.80;60.70
50955;DHT22;36966;48.064;-0.792;2022-10-31T04:55:41;19.80;60.70
50955;DHT22;36966;48.064;-0.792;2022-10-31T04:58:00;19.80;60.70
50955;DHT22;36966;48.064;-0.792;2022-10-31T05:00:21;19.70;60.70
50955;DHT22;36966;48.064;-0.792;2022-10-31T05:02:52;19.70;60.80
50955;DHT22;36966;48.064;-0.792;2022-10-31T05:05:13;19.80;60.70
50955;DHT22;36966;48.064;-0.792;2022-10-31T05:07:33;19.80;60.80
50955;DHT22;36966;48.064;-0.792;2022-10-31T05:09:52;19.80;60.80
50955;DHT22;36966;48.064;-0.792;2022-10-31T05:12:11;19.80;60.80
50955;DHT22;36966;48.064;-0.792;2022-10-31T05:14:30;19.80;60.80
50955;DHT22;36966;48.064;-0.792;2022-10-31T05:16:49;19.70;60.80
50955;DHT22;36966;48.064;-0.792;2022-10-31T05:19:09;19.80;60.80
50955;DHT22;36966;48.064;-0.792;2022-10-31T05:21:28;19.70;60.80
50955;DHT22;36966;48.064;-0.792;2022-10-31T05:23:47;19.70;60.70
50955;DHT22;36966;48.064;-0.792;2022-10-31T05:26:06;19.70;60.70
50955;DHT22;36966;48.064;-0.792;2022-10-31T05:28:25;19.70;60.80
50955;DHT22;36966;48.064;-0.792;2022-10-31T05:30:44;19.70;60.70
50955;DHT22;36966;48.064;-0.792;2022-10-31T05:33:03;19.70;60.80
50955;DHT22;36966;48.064;-0.792;2022-10-31T05:35:28;19.70;60.80
50955;DHT22;36966;48.064;-0.792;2022-10-31T05:37:48;19.70;60.80
50955;DHT22;36966;48.064;-0.792;2022-10-31T05:40:10;19.70;60.80
50955;DHT22;36966;48.064;-0.792;2022-10-31T05:42:29;19.70;60.80
50955;DHT22;36966;48.064;-0.792;2022-10-31T05:44:48;19.70;60.80
50955;DHT22;36966;48.064;-0.792;2022-10-31T05:47:07;19.70;60.80
50955;DHT22;36966;48.064;-0.792;2022-10-31T05:49:27;19.70;60.80
50955;DHT22;36966;48.064;-0.792;2022-10-31T05:51:46;19.70;60.80
50955;DHT22;36966;48.064;-0.792;2022-10-31T05:54:05;19.70;60.80
50955;DHT22;36966;48.064;-0.792;2022-10-31T05:56:24;19.70;60.80
50955;DHT22;36966;48.064;-0.792;2022-10-31T05:58:43;19.70;60.80
50955;DHT22;36966;48.064;-0.792;2022-10-31T06:01:02;19.70;60.90
50955;DHT22;36966;48.064;-0.792;2022-10-31T06:03:21;19.70;60.80
50955;DHT22;36966;48.064;-0.792;2022-10-31T06:05:40;19.70;60.80
50955;DHT22;36966;48.064;-0.792;2022-10-31T06:08:00;19.70;60.90
50955;DHT22;36966;48.064;-0.792;2022-10-31T06:10:19;19.70;60.90
50955;DHT22;36966;48.064;-0.792;2022-10-31T06:12:39;19.70;60.90
50955;DHT22;36966;48.064;-0.792;2022-10-31T06:14:59;19.70;60.90
50955;DHT22;36966;48.064;-0.792;2022-10-31T06:17:18;19.70;60.90
50955;DHT22;36966;48.064;-0.792;2022-10-31T06:19:37;19.70;60.90
50955;DHT22;36966;48.064;-0.792;2022-10-31T06:21:56;19.70;61.00
50955;DHT22;36966;48.064;-0.792;2022-10-31T06:24:15;19.70;61.00
50955;DHT22;36966;48.064;-0.792;2022-10-31T06:26:34;19.70;61.00
50955;DHT22;36966;48.064;-0.792;2022-10-31T06:28:53;19.70;61.00
50955;DHT22;36966;48.064;-0.792;2022-10-31T06:31:13;19.70;61.00
50955;DHT22;36966;48.064;-0.792;2022-10-31T06:33:33;19.70;61.00
50955;DHT22;36966;48.064;-0.792;2022-10-31T06:35:53;19.70;61.00
50955;DHT22;36966;48.064;-0.792;2022-10-31T06:38:12;19.70;61.00
50955;DHT22;36966;48.064;-0.792;2022-10-31T06:40:31;19.70;61.00
50955;DHT22;36966;48.064;-0.792;2022-10-31T06:42:58;19.70;61.00
50955;DHT22;36966;48.064;-0.792;2022-10-31T06:45:18;19.70;61.00
50955;DHT22;36966;48.064;-0.792;2022-10-31T06:47:37;19.70;61.00
50955;DHT22;36966;48.064;-0.792;2022-10-31T06:49:56;19.70;61.00
50955;DHT22;36966;48.064;-0.792;2022-10-31T06:52:16;19.70;61.00
50955;DHT22;36966;48.064;-0.792;2022-10-31T06:54:35;19.70;61.00
50955;DHT22;36966;48.064;-0.792;2022-10-31T06:56:54;19.70;61.10
50955;DHT22;36966;48.064;-0.792;2022-10-31T06:59:14;19.70;61.10
50955;DHT22;36966;48.064;-0.792;2022-10-31T07:01:34;19.70;61.10
50955;DHT22;36966;48.064;-0.792;2022-10-31T07:03:53;19.70;61.10
50955;DHT22;36966;48.064;-0.792;2022-10-31T07:06:12;19.70;61.10
50955;DHT22;36966;48.064;-0.792;2022-10-31T07:08:31;19.70;61.10
50955;DHT22;36966;48.064;-0.792;2022-10-31T07:10:56;19.70;61.10
50955;DHT22;36966;48.064;-0.792;2022-10-31T07:13:15;19.70;61.10
50955;DHT22;36966;48.064;-0.792;2022-10-31T07:15:36;19.70;61.10
50955;DHT22;36966;48.064;-0.792;2022-10-31T07:18:00;19.70;61.10
50955;DHT22;36966;48.064;-0.792;2022-10-31T07:20:20;19.70;61.10
50955;DHT22;36966;48.064;-0.792;2022-10-31T07:22:39;19.70;61.10
50955;DHT22;36966;48.064;-0.792;2022-10-31T07:24:58;19.70;61.10
50955;DHT22;36966;48.064;-0.792;2022-10-31T07:27:17;19.70;61.20
50955;DHT22;36966;48.064;-0.792;2022-10-31T07:29:36;19.70;61.10
50955;DHT22;36966;48.064;-0.792;2022-10-31T07:31:55;19.70;61.20
50955;DHT22;36966;48.064;-0.792;2022-10-31T07:34:14;19.70;61.00
50955;DHT22;36966;48.064;-0.792;2022-10-31T07:36:34;19.70;60.90
50955;DHT22;36966;48.064;-0.792;2022-10-31T07:38:53;19.70;60.90
50955;DHT22;36966;48.064;-0.792;2022-10-31T07:41:12;19.70;60.90
50955;DHT22;36966;48.064;-0.792;2022-10-31T07:43:31;19.70;60.90
50955;DHT22;36966;48.064;-0.792;2022-10-31T07:45:51;19.70;60.80
50955;DHT22;36966;48.064;-0.792;2022-10-31T07:48:11;19.70;60.90
50955;DHT22;36966;48.064;-0.792;2022-10-31T07:50:31;19.70;60.80
50955;DHT22;36966;48.064;-0.792;2022-10-31T07:53:11;19.70;60.90
50955;DHT22;36966;48.064;-0.792;2022-10-31T07:55:31;19.70;60.90
50955;DHT22;36966;48.064;-0.792;2022-10-31T07:58:06;19.70;60.90
50955;DHT22;36966;48.064;-0.792;2022-10-31T08:00:26;19.70;60.90
50955;DHT22;36966;48.064;-0.792;2022-10-31T08:02:45;19.70;60.80
50955;DHT22;36966;48.064;-0.792;2022-10-31T08:05:05;19.70;60.90
50955;DHT22;36966;48.064;-0.792;2022-10-31T08:07:24;19.70;60.90
50955;DHT22;36966;48.064;-0.792;2022-10-31T08:09:44;19.70;60.90
50955;DHT22;36966;48.064;-0.792;2022-10-31T08:12:03;19.70;60.90
50955;DHT22;36966;48.064;-0.792;2022-10-31T08:14:22;19.70;61.00
50955;DHT22;36966;48.064;-0.792;2022-10-31T08:16:42;19.70;60.90
50955;DHT22;36966;48.064;-0.792;2022-10-31T08:19:01;19.70;60.90
50955;DHT22;36966;48.064;-0.792;2022-10-31T08:21:20;19.70;60.90
50955;DHT22;36966;48.064;-0.792;2022-10-31T08:23:39;19.70;60.90
50955;DHT22;36966;48.064;-0.792;2022-10-31T08:25:58;19.70;60.90
50955;DHT22;36966;48.064;-0.792;2022-10-31T08:28:17;19.70;61.00
50955;DHT22;36966;48.064;-0.792;2022-10-31T08:30:37;19.70;61.00
50955;DHT22;36966;48.064;-0.792;2022-10-31T08:33:15;19.70;61.00
50955;DHT22;36966;48.064;-0.792;2022-10-31T08:35:34;19.70;61.00
50955;DHT22;36966;48.064;-0.792;2022-10-31T08:37:57;19.70;61.10
50955;DHT22;36966;48.064;-0.792;2022-10-31T08:40:17;19.70;61.10
50955;DHT22;36966;48.064;-0.792;2022-10-31T08:42:36;19.70;61.10
50955;DHT22;36966;48.064;-0.792;2022-10-31T08:44:55;19.70;61.10
50955;DHT22;36966;48.064;-0.792;2022-10-31T08:47:14;19.70;61.10
50955;DHT22;36966;48.064;-0.792;2022-10-31T08:49:33;19.70;61.10
50955;DHT22;36966;48.064;-0.792;2022-10-31T08:51:52;19.70;61.10
50955;DHT22;36966;48.064;-0.792;2022-10-31T08:54:12;19.70;61.10
50955;DHT22;36966;48.064;-0.792;2022-10-31T08:56:31;19.70;61.10
50955;DHT22;36966;48.064;-0.792;2022-10-31T08:58:50;19.70;61.10
50955;DHT22;36966;48.064;-0.792;2022-10-31T09:01:10;19.70;61.10
50955;DHT22;36966;48.064;-0.792;2022-10-31T09:03:30;19.70;61.20
50955;DHT22;36966;48.064;-0.792;2022-10-31T09:05:54;19.80;61.20
50955;DHT22;36966;48.064;-0.792;2022-10-31T09:08:15;19.70;61.20
50955;DHT22;36966;48.064;-0.792;2022-10-31T09:10:35;19.70;61.20
50955;DHT22;36966;48.064;-0.792;2022-10-31T09:13:00;19.70;61.30
50955;DHT22;36966;48.064;-0.792;2022-10-31T09:15:20;19.70;61.30
50955;DHT22;36966;48.064;-0.792;2022-10-31T09:17:39;19.70;61.30
50955;DHT22;36966;48.064;-0.792;2022-10-31T09:20:04;19.70;61.30
50955;DHT22;36966;48.064;-0.792;2022-10-31T09:22:24;19.70;61.40
50955;DHT22;36966;48.064;-0.792;2022-10-31T09:24:43;19.70;61.50
50955;DHT22;36966;48.064;-0.792;2022-10-31T09:27:02;19.70;61.40
50955;DHT22;36966;48.064;-0.792;2022-10-31T09:29:21;19.70;61.50
50955;DHT22;36966;48.064;-0.792;2022-10-31T09:31:40;19.70;61.50
50955;DHT22;36966;48.064;-0.792;2022-10-31T09:34:00;19.70;61.50
50955;DHT22;36966;48.064;-0.792;2022-10-31T09:36:19;19.70;61.60
50955;DHT22;36966;48.064;-0.792;2022-10-31T09:38:38;19.70;61.60
50955;DHT22;36966;48.064;-0.792;2022-10-31T09:46:39;19.70;61.70
50955;DHT22;36966;48.064;-0.792;2022-10-31T09:51:34;19.70;61.80
50955;DHT22;36966;48.064;-0.792;2022-10-31T09:54:02;19.70;61.90
50955;DHT22;36966;48.064;-0.792;2022-10-31T09:56:23;19.70;61.90
50955;DHT22;36966;48.064;-0.792;2022-10-31T09:58:46;19.70;61.80
50955;DHT22;36966;48.064;-0.792;2022-10-31T10:01:09;19.70;61.90
50955;DHT22;36966;48.064;-0.792;2022-10-31T10:03:41;19.70;62.40
50955;DHT22;36966;48.064;-0.792;2022-10-31T10:06:14;19.60;62.70
50955;DHT22;36966;48.064;-0.792;2022-10-31T10:08:35;19.60;62.60
50955;DHT22;36966;48.064;-0.792;2022-10-31T10:13:40;19.50;62.90
50955;DHT22;36966;48.064;-0.792;2022-10-31T10:16:30;19.50;62.90
50955;DHT22;36966;48.064;-0.792;2022-10-31T10:22:25;19.50;63.30
50955;DHT22;36966;48.064;-0.792;2022-10-31T10:24:50;19.50;63.60
50955;DHT22;36966;48.064;-0.792;2022-10-31T10:29:39;19.50;63.80
50955;DHT22;36966;48.064;-0.792;2022-10-31T10:32:25;19.50;63.70
50955;DHT22;36966;48.064;-0.792;2022-10-31T10:34:51;19.50;63.80
50955;DHT22;36966;48.064;-0.792;2022-10-31T10:39:38;19.40;64.10
50955;DHT22;36966;48.064;-0.792;2022-10-31T10:41:59;19.50;64.10
50955;DHT22;36966;48.064;-0.792;2022-10-31T10:44:40;19.50;63.90
50955;DHT22;36966;48.064;-0.792;2022-10-31T10:47:21;19.50;64.00
50955;DHT22;36966;48.064;-0.792;2022-10-31T10:50:01;19.50;63.90
50955;DHT22;36966;48.064;-0.792;2022-10-31T10:55:08;19.50;64.00
50955;DHT22;36966;48.064;-0.792;2022-10-31T11:00:18;19.50;64.60
50955;DHT22;36966;48.064;-0.792;2022-10-31T11:02:37;19.50;64.50
50955;DHT22;36966;48.064;-0.792;2022-10-31T11:05:00;19.50;65.30
50955;DHT22;36966;48.064;-0.792;2022-10-31T11:07:21;19.50;65.50
50955;DHT22;36966;48.064;-0.792;2022-10-31T11:09:40;19.40;65.70
50955;DHT22;36966;48.064;-0.792;2022-10-31T11:12:00;19.50;65.90
50955;DHT22;36966;48.064;-0.792;2022-10-31T11:14:26;19.50;65.60
50955;DHT22;36966;48.064;-0.792;2022-10-31T11:16:50;19.40;66.30
50955;DHT22;36966;48.064;-0.792;2022-10-31T11:19:21;19.40;66.10
50955;DHT22;36966;48.064;-0.792;2022-10-31T11:21:41;19.50;66.20
50955;DHT22;36966;48.064;-0.792;2022-10-31T11:24:23;19.50;65.70
50955;DHT22;36966;48.064;-0.792;2022-10-31T11:26:44;19.50;66.20
50955;DHT22;36966;48.064;-0.792;2022-10-31T11:29:04;19.60;65.70
50955;DHT22;36966;48.064;-0.792;2022-10-31T11:31:27;19.60;65.90
50955;DHT22;36966;48.064;-0.792;2022-10-31T11:33:49;19.60;65.90
50955;DHT22;36966;48.064;-0.792;2022-10-31T11:38:45;19.70;66.50
50955;DHT22;36966;48.064;-0.792;2022-10-31T11:41:17;19.70;66.30
50955;DHT22;36966;48.064;-0.792;2022-10-31T11:43:37;19.70;66.70
50955;DHT22;36966;48.064;-0.792;2022-10-31T11:45:57;19.70;66.90
50955;DHT22;36966;48.064;-0.792;2022-10-31T11:48:20;19.70;66.50
50955;DHT22;36966;48.064;-0.792;2022-10-31T11:50:41;19.70;66.50
50955;DHT22;36966;48.064;-0.792;2022-10-31T11:53:02;19.70;66.60
50955;DHT22;36966;48.064;-0.792;2022-10-31T11:55:37;19.70;66.30
50955;DHT22;36966;48.064;-0.792;2022-10-31T11:57:57;19.80;66.10
50955;DHT22;36966;48.064;-0.792;2022-10-31T12:00:29;19.80;66.00
50955;DHT22;36966;48.064;-0.792;2022-10-31T12:02:50;19.80;66.30
50955;DHT22;36966;48.064;-0.792;2022-10-31T12:05:23;19.90;66.10
50955;DHT22;36966;48.064;-0.792;2022-10-31T12:07:44;19.80;66.50
50955;DHT22;36966;48.064;-0.792;2022-10-31T12:10:10;19.80;67.10
50955;DHT22;36966;48.064;-0.792;2022-10-31T12:13:16;19.80;67.20
50955;DHT22;36966;48.064;-0.792;2022-10-31T12:15:47;19.80;67.90
50955;DHT22;36966;48.064;-0.792;2022-10-31T12:26:02;19.80;68.00
50955;DHT22;36966;48.064;-0.792;2022-10-31T12:36:12;19.70;69.30
50955;DHT22;36966;48.064;-0.792;2022-10-31T12:44:01;19.70;69.50
50955;DHT22;36966;48.064;-0.792;2022-10-31T12:55:04;19.80;68.80
50955;DHT22;36966;48.064;-0.792;2022-10-31T12:59:48;19.70;69.30
50955;DHT22;36966;48.064;-0.792;2022-10-31T13:07:08;19.70;70.10
50955;DHT22;36966;48.064;-0.792;2022-10-31T13:09:53;19.70;70.40
50955;DHT22;36966;48.064;-0.792;2022-10-31T13:12:17;19.70;69.60
50955;DHT22;36966;48.064;-0.792;2022-10-31T13:14:48;19.70;70.10
50955;DHT22;36966;48.064;-0.792;2022-10-31T13:17:22;19.60;70.60
50955;DHT22;36966;48.064;-0.792;2022-10-31T13:19:45;19.70;70.00
50955;DHT22;36966;48.064;-0.792;2022-10-31T13:22:08;19.70;70.20
50955;DHT22;36966;48.064;-0.792;2022-10-31T13:24:33;19.70;69.90
50955;DHT22;36966;48.064;-0.792;2022-10-31T13:26:57;19.80;70.40
50955;DHT22;36966;48.064;-0.792;2022-10-31T13:30:12;19.80;70.00
50955;DHT22;36966;48.064;-0.792;2022-10-31T13:32:03;19.80;70.30
50955;DHT22;36966;48.064;-0.792;2022-10-31T13:34:28;19.80;69.70
50955;DHT22;36966;48.064;-0.792;2022-10-31T13:37:03;19.80;69.40
50955;DHT22;36966;48.064;-0.792;2022-10-31T13:41:53;19.80;69.00
50955;DHT22;36966;48.064;-0.792;2022-10-31T13:44:28;19.90;68.90
50955;DHT22;36966;48.064;-0.792;2022-10-31T13:46:49;19.90;68.90
50955;DHT22;36966;48.064;-0.792;2022-10-31T13:51:48;19.90;68.50
50955;DHT22;36966;48.064;-0.792;2022-10-31T13:56:40;19.90;68.40
50955;DHT22;36966;48.064;-0.792;2022-10-31T14:01:34;19.90;68.20
50955;DHT22;36966;48.064;-0.792;2022-10-31T14:04:14;19.90;68.10
50955;DHT22;36966;48.064;-0.792;2022-10-31T14:08:55;19.90;68.10
50955;DHT22;36966;48.064;-0.792;2022-10-31T14:11:26;20.00;68.00
50955;DHT22;36966;48.064;-0.792;2022-10-31T14:13:46;19.90;68.00
50955;DHT22;36966;48.064;-0.792;2022-10-31T14:18:44;19.90;68.00
50955;DHT22;36966;48.064;-0.792;2022-10-31T14:23:44;19.90;67.90
50955;DHT22;36966;48.064;-0.792;2022-10-31T14:28:45;19.90;67.90
50955;DHT22;36966;48.064;-0.792;2022-10-31T14:31:29;20.00;68.00
50955;DHT22;36966;48.064;-0.792;2022-10-31T14:33:54;19.90;67.90
50955;DHT22;36966;48.064;-0.792;2022-10-31T14:36:22;19.90;68.10
50955;DHT22;36966;48.064;-0.792;2022-10-31T14:39:24;19.90;68.00
50955;DHT22;36966;48.064;-0.792;2022-10-31T14:45:02;19.90;68.20
50955;DHT22;36966;48.064;-0.792;2022-10-31T14:47:52;19.90;68.10
50955;DHT22;36966;48.064;-0.792;2022-10-31T14:52:38;19.90;68.20
50955;DHT22;36966;48.064;-0.792;2022-10-31T14:54:59;19.90;68.40
50955;DHT22;36966;48.064;-0.792;2022-10-31T14:57:29;19.90;68.30
50955;DHT22;36966;48.064;-0.792;2022-10-31T14:59:54;19.90;68.30
50955;DHT22;36966;48.064;-0.792;2022-10-31T15:02:37;19.90;68.40
50955;DHT22;36966;48.064;-0.792;2022-10-31T15:04:58;20.00;68.50
50955;DHT22;36966;48.064;-0.792;2022-10-31T15:07:24;20.00;68.40
50955;DHT22;36966;48.064;-0.792;2022-10-31T15:09:43;20.00;68.40
50955;DHT22;36966;48.064;-0.792;2022-10-31T15:12:23;20.00;68.40
50955;DHT22;36966;48.064;-0.792;2022-10-31T15:14:43;20.00;68.30
50955;DHT22;36966;48.064;-0.792;2022-10-31T15:17:03;19.90;68.30
50955;DHT22;36966;48.064;-0.792;2022-10-31T15:19:25;19.90;68.40
50955;DHT22;36966;48.064;-0.792;2022-10-31T15:21:45;19.90;68.30
50955;DHT22;36966;48.064;-0.792;2022-10-31T15:24:05;20.00;68.30
50955;DHT22;36966;48.064;-0.792;2022-10-31T15:26:40;19.90;68.30
50955;DHT22;36966;48.064;-0.792;2022-10-31T15:29:05;20.00;68.30
50955;DHT22;36966;48.064;-0.792;2022-10-31T15:31:24;19.90;68.20
50955;DHT22;36966;48.064;-0.792;2022-10-31T15:33:47;20.00;68.20
50955;DHT22;36966;48.064;-0.792;2022-10-31T15:36:22;20.00;68.20
50955;DHT22;36966;48.064;-0.792;2022-10-31T15:38:42;19.90;68.10
50955;DHT22;36966;48.064;-0.792;2022-10-31T15:41:04;19.90;68.00
50955;DHT22;36966;48.064;-0.792;2022-10-31T15:43:25;19.90;68.20
50955;DHT22;36966;48.064;-0.792;2022-10-31T15:45:44;19.90;68.00
50955;DHT22;36966;48.064;-0.792;2022-10-31T15:48:16;19.90;68.00
50955;DHT22;36966;48.064;-0.792;2022-10-31T15:50:37;19.90;67.90
50955;DHT22;36966;48.064;-0.792;2022-10-31T15:52:59;19.90;67.80
50955;DHT22;36966;48.064;-0.792;2022-10-31T15:55:21;19.90;67.70
50955;DHT22;36966;48.064;-0.792;2022-10-31T15:57:45;19.90;67.60
50955;DHT22;36966;48.064;-0.792;2022-10-31T16:00:05;19.90;67.60
50955;DHT22;36966;48.064;-0.792;2022-10-31T16:02:26;19.90;67.50
50955;DHT22;36966;48.064;-0.792;2022-10-31T16:04:59;19.90;67.40
50955;DHT22;36966;48.064;-0.792;2022-10-31T16:07:21;19.90;67.40
50955;DHT22;36966;48.064;-0.792;2022-10-31T16:10:00;19.90;67.30
50955;DHT22;36966;48.064;-0.792;2022-10-31T16:12:20;19.90;67.40
50955;DHT22;36966;48.064;-0.792;2022-10-31T16:14:41;19.80;67.40
50955;DHT22;36966;48.064;-0.792;2022-10-31T16:17:01;19.80;67.40
50955;DHT22;36966;48.064;-0.792;2022-10-31T16:19:23;19.80;67.40
50955;DHT22;36966;48.064;-0.792;2022-10-31T16:21:43;19.80;67.40
50955;DHT22;36966;48.064;-0.792;2022-10-31T16:24:30;19.80;67.30
50955;DHT22;36966;48.064;-0.792;2022-10-31T16:26:52;19.80;67.40
50955;DHT22;36966;48.064;-0.792;2022-10-31T16:29:32;19.80;67.40
50955;DHT22;36966;48.064;-0.792;2022-10-31T16:31:51;19.80;67.60
50955;DHT22;36966;48.064;-0.792;2022-10-31T16:34:14;19.80;67.70
50955;DHT22;36966;48.064;-0.792;2022-10-31T16:36:34;19.80;67.70
50955;DHT22;36966;48.064;-0.792;2022-10-31T16:38:58;19.80;67.70
50955;DHT22;36966;48.064;-0.792;2022-10-31T16:41:17;19.80;67.70
50955;DHT22;36966;48.064;-0.792;2022-10-31T16:43:37;19.80;67.70
50955;DHT22;36966;48.064;-0.792;2022-10-31T16:45:56;19.80;67.80
50955;DHT22;36966;48.064;-0.792;2022-10-31T16:48:21;19.80;67.80